Latest Coastal Weather Observations for Hobart Airport

IDT60701

Issued at 7:32 pm EST Saturday 2 July 2016 (issued every 10 minutes, with the page automatically refreshed every 10 minutes)

About coastal observations | Map of coastal stations | Coastal observations for TAS | Marine services | Other Formats
Station Details ID: 094008 Name: HOBART AIRPORT Lat: -42.83 Lon: 147.50 Height: 4.0 m
Data from the previous 72 hours. | See also: Recent months at Hobart Airport
Date/Time
EST
Temp
°C
Wind Pressure Rain since
9am
mm
Weather Cloud Vis
km
Sea
Height
m
Swell
Dir  Spd
kts
Gust
kts
hPa Trend Height
m
Period
s
Dir
02/07:00pm 12.7 NW 13 20 1014.6 - 0.0 - Mostly clear 10 - - - -
02/06:30pm 12.7 NW 13 19 1014.3 - 0.0 - Partly cloudy 10 - - - -
02/06:00pm 12.6 NW 11 17 1013.8 F 0.0 Fine Partly cloudy 40 - - - -
02/05:30pm 12.6 NW 13 19 1013.8 - 0.0 - Partly cloudy 10 - - - -
02/05:00pm 12.7 NW 10 14 1013.4 - 0.0 - Mostly clear 10 - - - -
02/04:30pm 12.9 NW 12 17 1013.4 - 0.0 - Partly cloudy 10 - - - -
02/04:00pm 13.3 NW 9 14 1013.3 - 0.0 - Partly cloudy 10 - - - -
02/03:30pm 13.7 WNW 13 19 1013.4 - 0.0 - Partly cloudy 10 - - - -
02/03:00pm 13.6 NW 10 14 1013.3 R 0.0 Fine Mostly cloudy 40 - - - -
02/02:30pm 14.0 WNW 14 21 1013.0 - 0.0 - Partly cloudy 10 - - - -
02/02:00pm 14.1 WNW 16 25 1013.1 - 0.0 - Partly cloudy 10 - - - -
02/01:56pm 14.1 WNW 15 25 1013.0 - 0.0 - Partly cloudy 10 - - - -
02/01:30pm 14.0 WNW 14 17 1013.5 - 0.0 - Partly cloudy 10 - - - -
02/01:00pm 13.9 NW 14 19 1013.4 - 0.0 - Partly cloudy 10 - - - -
02/12:30pm 13.7 WNW 13 19 1013.6 - 0.0 - Mostly clear 10 - - - -
02/12:00pm 13.3 WNW 16 23 1013.9 R 0.0 Distant precip. Mostly cloudy 40 - - - -
02/11:30am 13.7 WNW 16 24 1013.8 - 0.0 - - 10 - - - -
02/11:29am 13.6 NW 15 24 1013.8 - 0.0 - - 10 - - - -
02/11:00am 13.5 NW 9 12 1014.1 - 0.0 - Mostly clear 10 - - - -
02/10:30am 12.7 NW 7 9 1014.2 - 0.0 - Mostly clear 10 - - - -
02/10:00am 11.9 NNW 6 9 1014.0 - 0.0 - Mostly clear 10 - - - -
02/09:30am 10.9 NNW 8 11 1014.1 - 0.0 - Mostly clear 10 - - - -
02/09:00am 10.9 NNW 11 15 1013.9 R 0.0 Fine Mostly cloudy 40 - - - -
02/08:30am 10.5 NNW 10 14 1013.7 - 0.0 - Mostly clear 10 - - - -
02/08:00am 10.7 NNW 10 16 1014.0 - 0.0 - Mostly clear 10 - - - -
02/07:30am 11.0 NNW 11 16 1013.9 - 0.0 - Mostly clear 10 - - - -
02/07:00am 11.3 NW 13 17 1013.3 - 0.0 - Mostly clear 10 - - - -
02/06:30am 10.9 NW 12 21 1012.7 - 0.0 - Mostly clear 10 - - - -
02/06:00am 10.1 NNW 10 16 1012.5 F 0.0 Fine Partly cloudy 40 - - - -
02/05:30am 10.4 N 8 11 1012.3 - 0.0 - Mostly clear 10 - - - -
02/05:00am 9.2 NNW 7 10 1012.4 - 0.0 - Mostly clear 10 - - - -
02/04:30am 7.7 NNW 6 7 1012.5 - 0.0 - Mostly clear 10 - - - -
02/04:00am 8.1 NNW 5 7 1012.5 - 0.0 - Mostly clear 10 - - - -
02/03:30am 9.4 NW 5 7 1012.8 - 0.0 - Mostly clear 10 - - - -
02/03:00am 8.6 NW 5 6 1012.8 R 0.0 Fine Mostly cloudy 40 - - - -
02/02:30am 9.6 NNW 7 12 1013.0 - 0.0 - Partly cloudy 10 - - - -
02/02:00am 7.0 WNW 5 6 1013.0 - 0.0 - Partly cloudy 10 - - - -
02/01:30am 7.5 NNW 4 6 1013.0 - 0.0 - Mostly clear 10 - - - -
02/01:00am 9.1 NW 5 7 1013.1 - 0.0 - Mostly clear 10 - - - -
02/12:30am 8.0 N 4 5 1013.0 - 0.0 - Mostly clear 10 - - - -
02/12:00am 8.5 NNE 6 7 1013.1 F 0.0 Fine Partly cloudy 40 - - - -
 
Date/Time
EST
Temp
°C
Wind Pressure Rain since
9am
mm
Weather Cloud Vis
km
Sea
Height
m
Swell
Dir  Spd
kts
Gust
kts
hPa Trend Height
m
Period
s
Dir
01/11:30pm 9.0 NNW 6 9 1013.3 - 0.0 - Mostly clear 10 - - - -
01/11:00pm 9.4 N 8 9 1013.3 - 0.0 - Mostly clear 10 - - - -
01/10:30pm 8.8 N 6 9 1013.3 - 0.0 - Mostly clear 10 - - - -
01/10:00pm 8.5 N 7 10 1013.3 - 0.0 - Mostly clear 10 - - - -
01/09:30pm 7.2 N 6 7 1013.6 - 0.0 - Mostly clear 10 - - - -
01/09:00pm 9.3 NE 9 13 1013.5 R 0.0 Fine Partly cloudy 40 - - - -
01/08:30pm 9.3 NE 7 10 1013.4 - 0.0 - Mostly clear 10 - - - -
01/08:00pm 10.7 N 7 10 1013.0 - 0.0 - Mostly clear 10 - - - -
01/07:30pm 11.1 N 8 13 1013.0 - 0.0 - Mostly clear 10 - - - -
01/07:00pm 11.1 NNW 9 13 1012.9 - 0.0 - Mostly clear 10 - - - -
01/06:30pm 9.5 N 8 10 1012.7 - 0.0 - Mostly clear 10 - - - -
01/06:00pm 9.7 N 8 11 1012.6 R 0.0 Fine Partly cloudy 40 - - - -
01/05:30pm 9.4 N 7 9 1012.7 - 0.0 - Mostly clear 10 - - - -
01/05:00pm 10.8 NNW 9 15 1012.1 - 0.0 - Mostly clear 10 - - - -
01/04:30pm 11.3 NW 10 15 1012.2 - 0.0 - Mostly clear 10 - - - -
01/04:00pm 11.2 NNW 8 11 1012.0 - 0.0 - Mostly clear 10 - - - -
01/03:30pm 11.2 NNW 7 10 1011.8 - 0.0 - Mostly clear 10 - - - -
01/03:00pm 11.8 NW 10 15 1011.8 R 0.0 Fine Mostly cloudy 40 - - - -
01/02:30pm 12.2 NW 8 11 1011.7 - 0.0 - Mostly clear 10 - - - -
01/02:00pm 12.5 WNW 12 17 1011.5 - 0.0 - Mostly clear 10 - - - -
01/01:30pm 12.9 NW 15 21 1011.4 - 0.0 - Mostly clear 10 - - - -
01/01:00pm 12.6 NW 16 20 1011.6 - 0.0 - Mostly clear 10 - - - -
01/12:30pm 12.4 NW 14 18 1011.9 - 0.0 - Mostly clear 10 - - - -
01/12:00pm 11.7 NW 13 18 1012.1 R 0.0 Fine Mostly cloudy 40 - - - -
01/11:30am 11.4 NNW 12 17 1012.1 - 0.0 - Mostly clear 10 - - - -
01/11:00am 11.0 NNW 11 18 1012.1 - 0.0 - Mostly clear 10 - - - -
01/10:30am 10.0 NNW 9 14 1012.3 - 0.0 - Mostly clear 10 - - - -
01/10:00am 8.8 NNW 7 10 1011.9 - 0.0 - Mostly clear 10 - - - -
01/09:30am 8.4 NNW 7 11 1011.6 - 0.0 - Mostly clear 10 - - - -
01/09:00am 7.2 NNW 6 8 1011.7 R 0.0 Fine Partly cloudy 40 - - - -
01/08:30am 6.8 NW 7 9 1011.4 - 0.0 - Mostly clear 10 - - - -
01/08:00am 5.0 NNW 6 8 1011.1 - 0.0 - Mostly clear 10 - - - -
01/07:30am 5.8 NW 5 6 1010.9 - 0.0 - Mostly clear 10 - - - -
01/07:00am 3.2 WNW 6 7 1010.3 - 0.0 - Mostly clear 10 - - - -
01/06:30am 5.5 NNE 3 5 1010.1 - 0.0 - Mostly clear 10 - - - -
01/06:00am 5.1 NNW 6 8 1009.9 R 0.0 Fine Mostly clear 40 - - - -
01/05:30am 5.3 WNW 7 8 1009.6 - 0.0 - Mostly clear 10 - - - -
01/05:00am 5.5 WSW 4 4 1009.1 - 0.0 - Mostly clear 10 - - - -
01/04:30am 5.8 NW 7 8 1008.5 - 0.0 - Mostly clear 10 - - - -
01/04:00am 6.1 N 4 5 1008.2 - 0.0 - Mostly clear 10 - - - -
01/03:30am 5.1 NNE 6 7 1008.0 - 0.0 - Partly cloudy 10 - - - -
01/03:00am 4.7 WNW 4 5 1007.9 R 0.0 Fine Partly cloudy 40 - - - -
01/02:30am 5.8 W 5 6 1007.4 - 0.0 - Mostly clear 10 - - - -
01/02:00am 6.3 NW 4 5 1006.8 - 0.0 - Mostly clear 10 - - - -
01/01:30am 6.9 NW 4 5 1006.4 - 0.0 - Mostly clear 10 - - - -
01/01:00am 7.6 NW 7 8 1006.2 - 0.0 - Mostly clear 10 - - - -
01/12:30am 7.3 NW 7 8 1005.9 - 0.0 - Mostly clear 10 - - - -
01/12:00am 7.2 NW 2 5 1005.6 R 0.0 Fine Partly cloudy 40 - - - -
 
Date/Time
EST
Temp
°C
Wind Pressure Rain since
9am
mm
Weather Cloud Vis
km
Sea
Height
m
Swell
Dir  Spd
kts
Gust
kts
hPa Trend Height
m
Period
s
Dir
30/11:30pm 7.2 NW 5 6 1005.4 - 0.0 - Mostly clear 10 - - - -
30/11:00pm 7.1 NNW 7 8 1005.1 - 0.0 - Mostly clear 10 - - - -
30/10:30pm 7.9 NW 6 7 1004.8 - 0.0 - Mostly clear 10 - - - -
30/10:00pm 8.8 NW 5 5 1004.4 - 0.0 - Mostly clear 10 - - - -
30/09:30pm 9.4 NW 6 7 1004.1 - 0.0 - Mostly clear 10 - - - -
30/09:00pm 9.5 NNW 7 9 1004.0 R 0.0 Fine Mostly cloudy 40 - - - -
30/08:30pm 9.5 WNW 6 7 1003.8 - 0.0 - Mostly clear 10 - - - -
30/08:00pm 9.3 N 7 9 1003.5 - 0.0 - Mostly clear 10 - - - -
30/07:30pm 9.9 N 4 6 1003.3 - 0.0 - Mostly clear 10 - - - -
30/07:00pm 9.8 NNW 5 6 1003.1 - 0.0 - Mostly clear 10 - - - -
30/06:30pm 10.3 N 7 12 1002.9 - 0.0 - Mostly clear 10 - - - -
30/06:00pm 10.5 N 7 9 1002.5 R 0.0 Fine Mostly cloudy 40 - - - -
30/05:30pm 10.6 NNE 7 12 1002.1 - 0.0 - Mostly clear 10 - - - -
30/05:00pm 10.9 N 8 14 1001.7 - 0.0 - Mostly clear 10 - - - -
30/04:30pm 11.1 N 13 19 1001.0 - 0.0 - Mostly clear 10 - - - -
30/04:10pm 11.2 N 15 25 1000.8 - 0.0 - Mostly clear 10 - - - -
30/04:00pm 11.3 N 17 25 1000.7 - 0.0 - Mostly clear 10 - - - -
30/03:30pm 11.5 N 14 21 1000.6 - 0.0 - Mostly clear 10 - - - -
30/03:00pm 11.6 N 15 19 1000.6 F 0.0 Fine Mostly cloudy 40 - - - -
30/02:30pm 12.1 N 17 23 1000.7 - 0.0 - Mostly clear 10 - - - -
30/02:00pm 12.2 N 15 22 1000.9 - 0.0 - Mostly clear 10 - - - -
30/01:30pm 12.3 N 16 22 1001.4 - 0.0 - Mostly clear 10 - - - -
30/01:00pm 12.1 N 15 21 1001.7 - 0.0 - Mostly clear 10 - - - -
30/12:53pm 12.1 N 16 26 1001.8 - 0.0 - Mostly clear 10 - - - -
30/12:30pm 12.0 N 19 27 1002.2 - 0.0 - Mostly clear 10 - - - -
30/12:00pm 12.1 N 19 26 1002.9 F 0.0 Fine Mostly cloudy 40 - - - -
30/11:40am 12.0 N 17 27 1003.3 - 0.0 - Mostly clear 10 - - - -
30/11:30am 11.9 N 18 23 1003.7 - 0.0 - Mostly clear 10 - - - -
30/11:16am 12.0 N 16 27 1003.9 - 0.0 - Mostly clear 10 - - - -
30/11:00am 12.1 N 13 21 1004.4 - 0.0 - Mostly clear 10 - - - -
30/10:30am 11.8 N 15 25 1004.7 - 0.0 - Mostly clear 10 - - - -
30/10:01am 11.6 N 15 25 1005.1 - 0.0 - Mostly clear 10 - - - -
30/10:00am 11.4 N 15 22 1005.1 - 0.0 - Mostly clear 10 - - - -
30/09:30am 11.5 N 16 24 1005.4 - 0.0 - Mostly clear 10 - - - -
30/09:00am 11.4 N 14 23 1005.8 F 0.0 Fine Mostly cloudy 40 - - - -
30/08:30am 10.9 N 13 17 1006.1 - 0.0 - Partly cloudy 10 - - - -
30/08:00am 11.1 N 12 19 1006.3 - 0.0 - Partly cloudy 10 - - - -
30/07:30am 10.7 N 6 9 1006.9 - 0.0 - Mostly clear 10 - - - -
30/07:00am 10.5 NNE 9 18 1007.0 - 0.0 - Mostly clear 10 - - - -
30/06:30am 10.7 NNE 12 18 1007.5 - 0.0 - Mostly clear 10 - - - -
30/06:00am 11.0 NNE 10 18 1008.1 F 0.0 Fine Mostly cloudy 40 - - - -
30/05:30am 10.9 NNE 10 16 1008.1 - 0.0 - Partly cloudy 10 - - - -
30/05:00am 10.7 NE 11 16 1008.5 - 0.0 - Mostly clear 10 - - - -
30/04:30am 10.7 NNE 8 12 1008.7 - 0.0 - Mostly clear 10 - - - -
30/04:00am 11.1 N 9 16 1008.9 - 0.0 - Mostly clear 10 - - - -
30/03:30am 10.0 NW 8 13 1009.6 - 0.0 - Mostly clear 10 - - - -
30/03:00am 11.3 N 12 18 1010.0 F 0.0 Fine Mostly cloudy 40 - - - -
30/02:30am 11.3 N 12 17 1010.7 - 0.0 - Mostly clear 10 - - - -
30/02:00am 11.4 NNE 10 14 1011.2 - 0.0 - Mostly clear 10 - - - -
30/01:30am 11.3 N 9 14 1011.6 - 0.0 - Partly cloudy 10 - - - -
30/01:00am 10.5 NNE 6 8 1012.2 - 0.0 - Mostly clear 10 - - - -
30/12:30am 10.6 NNE 7 9 1013.0 - 0.0 - Partly cloudy 10 - - - -
30/12:00am 11.2 N 13 18 1013.8 F 0.0 Fine Mostly cloudy 40 - - - -
 
Date/Time
EST
Temp
°C
Wind Pressure Rain since
9am
mm
Weather Cloud Vis
km
Sea
Height
m
Swell
Dir  Spd
kts
Gust
kts
hPa Trend Height
m
Period
s
Dir
29/11:30pm 9.1 NNW 10 14 1014.3 - 0.0 - Mostly clear 10 - - - -
29/11:00pm 9.3 NNW 10 14 1014.7 - 0.0 - Mostly clear 10 - - - -
29/10:30pm 10.2 NNW 9 14 1014.9 - 0.0 - Mostly clear 10 - - - -
29/10:00pm 10.4 NNW 11 17 1015.5 - 0.0 - Mostly clear 10 - - - -
29/09:30pm 10.2 NNW 9 17 1015.7 - 0.0 - Mostly clear 10 - - - -
29/09:00pm 10.4 NNW 5 8 1016.1 F 0.0 Fine Partly cloudy 40 - - - -
29/08:30pm 9.7 WNW 6 7 1016.5 - 0.0 - Mostly clear 10 - - - -
29/08:00pm 9.7 NW 6 9 1016.9 - 0.0 - Mostly clear 10 - - - -

Other Formats:

Comma delimited format used in spreadsheet applications
http://www.bom.gov.au/fwo/IDT60701/IDT60701.94975.axf

JavaScript Object Notation format (JSON) in row-major order
http://www.bom.gov.au/fwo/IDT60701/IDT60701.94975.json